TimePDT,TemperatureF,Dew PointF,Humidity,Sea Level PressureIn,VisibilityMPH,Wind Direction,Wind SpeedMPH,Gust SpeedMPH,PrecipitationIn,Events,Conditions,WindDirDegrees,DateUTC
12:47 AM,64.9,60.1,84,29.91,10.0,Calm,Calm,-,N/A,,Clear,0,2012-10-08 07:47:00
1:47 AM,64.9,60.1,84,29.93,10.0,Calm,Calm,-,N/A,,Clear,0,2012-10-08 08:47:00
2:47 AM,64.9,60.1,84,29.92,10.0,East,3.5,-,N/A,,Clear,100,2012-10-08 09:47:00
3:47 AM,64.9,60.1,84,29.92,10.0,SE,3.5,-,N/A,,Clear,130,2012-10-08 10:47:00
4:47 AM,64.0,60.1,87,29.93,10.0,Calm,Calm,-,N/A,,Clear,0,2012-10-08 11:47:00
5:47 AM,64.0,60.1,87,29.94,10.0,Calm,Calm,-,N/A,,Clear,0,2012-10-08 12:47:00
6:47 AM,64.0,60.1,87,29.95,10.0,Calm,Calm,-,N/A,,Mostly Cloudy,0,2012-10-08 13:47:00
7:47 AM,66.0,60.1,81,29.96,5.0,Variable,3.5,-,N/A,,Haze,0,2012-10-08 14:47:00
8:08 AM,66.2,60.8,83,29.97,5.0,Calm,Calm,-,N/A,,Haze,0,2012-10-08 15:08:00
8:47 AM,66.9,59.0,76,29.97,7.0,Variable,4.6,-,N/A,,Overcast,0,2012-10-08 15:47:00
9:47 AM,68.0,59.0,73,29.98,9.0,Variable,4.6,-,N/A,,Overcast,0,2012-10-08 16:47:00
10:47 AM,69.1,57.9,68,29.97,10.0,Calm,Calm,-,N/A,,Overcast,0,2012-10-08 17:47:00
11:47 AM,70.0,57.9,65,29.96,10.0,Calm,Calm,-,N/A,,Mostly Cloudy,0,2012-10-08 18:47:00
12:26 PM,73.4,59.0,61,29.96,10.0,Calm,Calm,-,N/A,,Scattered Clouds,0,2012-10-08 19:26:00
12:47 PM,75.0,57.9,55,29.95,10.0,Variable,3.5,-,N/A,,Partly Cloudy,0,2012-10-08 19:47:00
1:47 PM,77.0,59.0,54,29.91,10.0,Calm,Calm,-,N/A,,Clear,0,2012-10-08 20:47:00
2:47 PM,75.9,59.0,56,29.91,10.0,West,4.6,-,N/A,,Clear,280,2012-10-08 21:47:00
3:47 PM,75.0,59.0,57,29.91,10.0,Variable,4.6,-,N/A,,Clear,0,2012-10-08 22:47:00
4:47 PM,72.0,59.0,64,29.92,10.0,Variable,4.6,-,N/A,,Clear,0,2012-10-08 23:47:00
5:47 PM,70.0,59.0,68,29.92,10.0,West,3.5,-,N/A,,Clear,260,2012-10-09 00:47:00
6:47 PM,68.0,57.0,68,29.93,10.0,West,4.6,-,N/A,,Clear,280,2012-10-09 01:47:00
7:47 PM,66.9,57.9,73,29.94,10.0,Calm,Calm,-,N/A,,Clear,0,2012-10-09 02:47:00
8:47 PM,66.0,59.0,78,29.95,10.0,Calm,Calm,-,N/A,,Clear,0,2012-10-09 03:47:00
9:47 PM,66.0,59.0,78,29.96,10.0,Calm,Calm,-,N/A,,Clear,0,2012-10-09 04:47:00
10:47 PM,66.0,57.9,75,29.96,10.0,Calm,Calm,-,N/A,,Clear,0,2012-10-09 05:47:00
11:47 PM,64.9,59.0,81,29.96,10.0,Calm,Calm,-,N/A,,Clear,0,2012-10-09 06:47:00